Hovedside
METAR-TAF:

METAR-TAF

Lufthavner :

Tena, Ecuador

breddegrad: 01-03-35S, lengdegrad: 77-35-00W, høyde over havet: 376 m

Gjeldene værobservasjon

Denne rapporten ble laget for 16 minutter siden, klokken 16:00 UTC
Vind 3 kt fra Sør-sørvest
Temperatur 28°C
Luftfuktighet 79%
Trykk 1014 hPa
Sikt 10 km eller mer
Få skyer i en høyde av 2000 ft
Brutte skyer i en høyde av 10000 ft

METAR: SEJD 041600Z 20003KT 9999 FEW020 BKN100 28/24 Q1014 RMK A2996

Tid: 11:16 (16:16 UTC)


TAF: fraværende

Værobservasjoner og værvarsel for over 4000 flyplasser (METAR- og TAF-rapporter).

Tilgjengelige stasjoner er representert av de røde og gule prikkene på kartet.

Hold musepekeren over prikken for å se navnet på stasjonen.

Klikk så for å se værobservasjoner og -varsler.

For å forandre kartet kan du klikke på den grønne knappen med svart kryss for å zoome inn, på den grønne knappen med strek for å zoome ut, eller på de grønne pilene for å se tilstøtende kart.


METAR-TAF: